sensor_id;sensor_type;location;lat;lon;timestamp;pressure;altitude;pressure_sealevel;temperature;humidity
4735;BME280;2381;50.676;12.612;2022-12-13T00:02:43;97020.53;;;-8.75;100.00
4735;BME280;2381;50.676;12.612;2022-12-13T00:05:46;97014.22;;;-8.85;100.00
4735;BME280;2381;50.676;12.612;2022-12-13T00:08:49;97011.53;;;-8.82;100.00
4735;BME280;2381;50.676;12.612;2022-12-13T00:11:53;97013.53;;;-8.55;100.00
4735;BME280;2381;50.676;12.612;2022-12-13T00:14:56;97015.06;;;-8.51;100.00
4735;BME280;2381;50.676;12.612;2022-12-13T00:17:59;97007.78;;;-8.58;100.00
4735;BME280;2381;50.676;12.612;2022-12-13T00:21:03;97007.31;;;-8.49;100.00
4735;BME280;2381;50.676;12.612;2022-12-13T00:24:06;97006.28;;;-8.62;100.00
4735;BME280;2381;50.676;12.612;2022-12-13T00:27:11;96998.56;;;-8.61;100.00
4735;BME280;2381;50.676;12.612;2022-12-13T00:30:14;97003.03;;;-8.66;100.00
4735;BME280;2381;50.676;12.612;2022-12-13T00:33:17;96999.97;;;-8.55;100.00
4735;BME280;2381;50.676;12.612;2022-12-13T00:36:19;97005.00;;;-8.88;100.00
4735;BME280;2381;50.676;12.612;2022-12-13T00:39:23;97004.78;;;-8.83;100.00
4735;BME280;2381;50.676;12.612;2022-12-13T00:42:27;96994.28;;;-8.94;100.00
4735;BME280;2381;50.676;12.612;2022-12-13T00:45:31;96994.44;;;-8.97;100.00
4735;BME280;2381;50.676;12.612;2022-12-13T00:48:34;97000.66;;;-9.03;100.00
4735;BME280;2381;50.676;12.612;2022-12-13T00:51:38;97002.56;;;-9.08;100.00
4735;BME280;2381;50.676;12.612;2022-12-13T00:54:41;97001.16;;;-8.96;100.00
4735;BME280;2381;50.676;12.612;2022-12-13T00:57:46;97004.19;;;-8.88;100.00
4735;BME280;2381;50.676;12.612;2022-12-13T01:00:48;96991.81;;;-8.79;100.00
4735;BME280;2381;50.676;12.612;2022-12-13T01:03:52;96990.53;;;-8.87;100.00
4735;BME280;2381;50.676;12.612;2022-12-13T01:06:56;96990.09;;;-8.78;100.00
4735;BME280;2381;50.676;12.612;2022-12-13T01:09:59;96993.22;;;-8.73;100.00
4735;BME280;2381;50.676;12.612;2022-12-13T01:13:03;96987.97;;;-8.70;100.00
4735;BME280;2381;50.676;12.612;2022-12-13T01:16:08;96983.75;;;-8.71;100.00
4735;BME280;2381;50.676;12.612;2022-12-13T01:19:11;96986.25;;;-8.70;100.00
4735;BME280;2381;50.676;12.612;2022-12-13T01:22:14;96978.09;;;-8.76;100.00
4735;BME280;2381;50.676;12.612;2022-12-13T01:25:17;96983.63;;;-8.85;100.00
4735;BME280;2381;50.676;12.612;2022-12-13T01:28:22;96977.41;;;-8.80;100.00
4735;BME280;2381;50.676;12.612;2022-12-13T01:31:25;96968.00;;;-8.79;100.00
4735;BME280;2381;50.676;12.612;2022-12-13T01:34:28;96970.03;;;-8.69;100.00
4735;BME280;2381;50.676;12.612;2022-12-13T01:37:31;96960.63;;;-8.84;100.00
4735;BME280;2381;50.676;12.612;2022-12-13T01:40:42;96968.78;;;-8.94;100.00
4735;BME280;2381;50.676;12.612;2022-12-13T01:43:53;96960.84;;;-8.88;100.00
4735;BME280;2381;50.676;12.612;2022-12-13T01:46:56;96958.50;;;-8.76;100.00
4735;BME280;2381;50.676;12.612;2022-12-13T01:50:02;96958.03;;;-8.67;100.00
4735;BME280;2381;50.676;12.612;2022-12-13T01:53:07;96959.78;;;-8.84;100.00
4735;BME280;2381;50.676;12.612;2022-12-13T01:56:13;96963.00;;;-8.81;100.00
4735;BME280;2381;50.676;12.612;2022-12-13T01:59:29;96956.16;;;-8.63;100.00
4735;BME280;2381;50.676;12.612;2022-12-13T02:02:40;96948.28;;;-8.76;100.00
4735;BME280;2381;50.676;12.612;2022-12-13T02:05:48;96956.31;;;-8.83;100.00
4735;BME280;2381;50.676;12.612;2022-12-13T02:08:54;96952.88;;;-8.82;100.00
4735;BME280;2381;50.676;12.612;2022-12-13T02:11:57;96952.19;;;-8.86;100.00
4735;BME280;2381;50.676;12.612;2022-12-13T02:15:03;96954.50;;;-8.81;100.00
4735;BME280;2381;50.676;12.612;2022-12-13T02:18:17;96965.03;;;-8.87;100.00
4735;BME280;2381;50.676;12.612;2022-12-13T02:21:28;96963.16;;;-9.01;100.00
4735;BME280;2381;50.676;12.612;2022-12-13T02:24:49;96961.56;;;-9.03;100.00
4735;BME280;2381;50.676;12.612;2022-12-13T02:28:06;96959.78;;;-9.18;100.00
4735;BME280;2381;50.676;12.612;2022-12-13T02:31:38;96968.69;;;-9.10;100.00
4735;BME280;2381;50.676;12.612;2022-12-13T02:34:47;96960.41;;;-9.15;100.00
4735;BME280;2381;50.676;12.612;2022-12-13T02:37:59;96956.00;;;-9.11;100.00
4735;BME280;2381;50.676;12.612;2022-12-13T02:41:14;96958.25;;;-9.22;100.00
4735;BME280;2381;50.676;12.612;2022-12-13T02:44:20;96954.13;;;-9.08;100.00
4735;BME280;2381;50.676;12.612;2022-12-13T02:47:26;96955.03;;;-9.09;100.00
4735;BME280;2381;50.676;12.612;2022-12-13T02:50:31;96949.41;;;-9.15;100.00
4735;BME280;2381;50.676;12.612;2022-12-13T02:53:36;96957.06;;;-9.15;100.00
4735;BME280;2381;50.676;12.612;2022-12-13T02:56:40;96949.72;;;-9.04;100.00
4735;BME280;2381;50.676;12.612;2022-12-13T02:59:43;96940.16;;;-8.99;100.00
4735;BME280;2381;50.676;12.612;2022-12-13T03:02:57;96940.44;;;-9.05;100.00
4735;BME280;2381;50.676;12.612;2022-12-13T03:06:18;96942.22;;;-9.07;100.00
4735;BME280;2381;50.676;12.612;2022-12-13T03:09:45;96945.97;;;-9.14;100.00
4735;BME280;2381;50.676;12.612;2022-12-13T03:12:55;96936.38;;;-9.09;100.00
4735;BME280;2381;50.676;12.612;2022-12-13T03:16:26;96938.94;;;-9.09;100.00
4735;BME280;2381;50.676;12.612;2022-12-13T03:19:31;96936.75;;;-9.00;100.00
4735;BME280;2381;50.676;12.612;2022-12-13T03:22:34;96938.78;;;-9.06;100.00
4735;BME280;2381;50.676;12.612;2022-12-13T03:25:37;96946.84;;;-9.32;100.00
4735;BME280;2381;50.676;12.612;2022-12-13T03:28:40;96942.19;;;-9.41;100.00
4735;BME280;2381;50.676;12.612;2022-12-13T03:31:43;96947.72;;;-9.50;100.00
4735;BME280;2381;50.676;12.612;2022-12-13T03:34:48;96941.25;;;-9.57;100.00
4735;BME280;2381;50.676;12.612;2022-12-13T03:38:12;96938.78;;;-9.59;100.00
4735;BME280;2381;50.676;12.612;2022-12-13T03:41:25;96929.75;;;-9.47;100.00
4735;BME280;2381;50.676;12.612;2022-12-13T03:44:32;96938.28;;;-9.48;100.00
4735;BME280;2381;50.676;12.612;2022-12-13T03:47:35;96931.13;;;-9.40;100.00
4735;BME280;2381;50.676;12.612;2022-12-13T03:50:39;96930.66;;;-9.48;100.00
4735;BME280;2381;50.676;12.612;2022-12-13T03:53:42;96931.53;;;-9.49;100.00
4735;BME280;2381;50.676;12.612;2022-12-13T03:56:45;96923.69;;;-9.45;100.00
4735;BME280;2381;50.676;12.612;2022-12-13T03:59:48;96931.69;;;-9.35;100.00
4735;BME280;2381;50.676;12.612;2022-12-13T04:02:51;96933.66;;;-9.40;100.00
4735;BME280;2381;50.676;12.612;2022-12-13T04:05:55;96925.72;;;-9.34;100.00
4735;BME280;2381;50.676;12.612;2022-12-13T04:08:59;96926.75;;;-9.38;100.00
4735;BME280;2381;50.676;12.612;2022-12-13T04:12:02;96924.66;;;-9.30;100.00
4735;BME280;2381;50.676;12.612;2022-12-13T04:15:22;96923.47;;;-9.40;100.00
4735;BME280;2381;50.676;12.612;2022-12-13T04:18:25;96914.69;;;-9.52;100.00
4735;BME280;2381;50.676;12.612;2022-12-13T04:21:29;96908.91;;;-9.55;100.00
4735;BME280;2381;50.676;12.612;2022-12-13T04:24:32;96902.00;;;-9.53;100.00
4735;BME280;2381;50.676;12.612;2022-12-13T04:27:35;96906.97;;;-9.50;100.00
4735;BME280;2381;50.676;12.612;2022-12-13T04:30:38;96898.88;;;-9.58;100.00
4735;BME280;2381;50.676;12.612;2022-12-13T04:33:41;96909.78;;;-9.56;100.00
4735;BME280;2381;50.676;12.612;2022-12-13T04:36:46;96910.97;;;-9.63;100.00
4735;BME280;2381;50.676;12.612;2022-12-13T04:39:49;96902.00;;;-9.53;100.00
4735;BME280;2381;50.676;12.612;2022-12-13T04:42:51;96916.91;;;-9.63;100.00
4735;BME280;2381;50.676;12.612;2022-12-13T04:45:56;96910.38;;;-9.68;100.00
4735;BME280;2381;50.676;12.612;2022-12-13T04:48:59;96908.25;;;-9.77;100.00
4735;BME280;2381;50.676;12.612;2022-12-13T04:52:03;96908.25;;;-9.77;100.00
4735;BME280;2381;50.676;12.612;2022-12-13T04:55:07;96906.88;;;-9.66;100.00
4735;BME280;2381;50.676;12.612;2022-12-13T04:58:11;96906.47;;;-9.75;100.00
4735;BME280;2381;50.676;12.612;2022-12-13T05:01:21;96903.59;;;-9.86;100.00
4735;BME280;2381;50.676;12.612;2022-12-13T05:04:24;96912.31;;;-9.73;100.00
4735;BME280;2381;50.676;12.612;2022-12-13T05:07:35;96894.03;;;-9.64;100.00
4735;BME280;2381;50.676;12.612;2022-12-13T05:10:43;96907.84;;;-9.68;100.00
4735;BME280;2381;50.676;12.612;2022-12-13T05:13:46;96909.75;;;-9.73;100.00
4735;BME280;2381;50.676;12.612;2022-12-13T05:16:49;96906.75;;;-9.81;100.00
4735;BME280;2381;50.676;12.612;2022-12-13T05:19:52;96913.19;;;-9.74;100.00
4735;BME280;2381;50.676;12.612;2022-12-13T05:22:57;96903.28;;;-9.62;100.00
4735;BME280;2381;50.676;12.612;2022-12-13T05:26:00;96897.50;;;-9.65;100.00
4735;BME280;2381;50.676;12.612;2022-12-13T05:29:03;96899.44;;;-9.70;100.00
4735;BME280;2381;50.676;12.612;2022-12-13T05:32:06;96912.38;;;-9.75;100.00
4735;BME280;2381;50.676;12.612;2022-12-13T05:35:10;96916.78;;;-9.78;100.00
4735;BME280;2381;50.676;12.612;2022-12-13T05:38:15;96915.16;;;-9.79;100.00
4735;BME280;2381;50.676;12.612;2022-12-13T05:41:21;96917.38;;;-9.90;100.00
4735;BME280;2381;50.676;12.612;2022-12-13T05:44:25;96927.72;;;-10.11;100.00
4735;BME280;2381;50.676;12.612;2022-12-13T05:47:28;96918.22;;;-10.08;100.00
4735;BME280;2381;50.676;12.612;2022-12-13T05:50:31;96927.97;;;-9.99;100.00
4735;BME280;2381;50.676;12.612;2022-12-13T05:53:35;96921.53;;;-10.06;100.00
4735;BME280;2381;50.676;12.612;2022-12-13T05:56:38;96920.56;;;-10.03;100.00
4735;BME280;2381;50.676;12.612;2022-12-13T05:59:41;96920.38;;;-10.00;100.00
4735;BME280;2381;50.676;12.612;2022-12-13T06:02:44;96928.78;;;-9.98;100.00
4735;BME280;2381;50.676;12.612;2022-12-13T06:05:47;96924.13;;;-10.07;100.00
4735;BME280;2381;50.676;12.612;2022-12-13T06:08:52;96923.47;;;-10.11;100.00
4735;BME280;2381;50.676;12.612;2022-12-13T06:11:55;96923.03;;;-10.20;100.00
4735;BME280;2381;50.676;12.612;2022-12-13T06:15:02;96921.66;;;-10.09;100.00
4735;BME280;2381;50.676;12.612;2022-12-13T06:18:23;96916.13;;;-10.00;100.00
4735;BME280;2381;50.676;12.612;2022-12-13T06:21:26;96928.72;;;-10.34;100.00
4735;BME280;2381;50.676;12.612;2022-12-13T06:24:45;96930.75;;;-10.22;100.00
4735;BME280;2381;50.676;12.612;2022-12-13T06:27:48;96918.91;;;-10.23;100.00
4735;BME280;2381;50.676;12.612;2022-12-13T06:30:51;96924.53;;;-10.35;100.00
4735;BME280;2381;50.676;12.612;2022-12-13T06:33:54;96921.50;;;-10.43;100.00
4735;BME280;2381;50.676;12.612;2022-12-13T06:36:57;96927.22;;;-10.38;100.00
4735;BME280;2381;50.676;12.612;2022-12-13T06:40:04;96927.72;;;-10.30;100.00
4735;BME280;2381;50.676;12.612;2022-12-13T06:43:07;96927.03;;;-10.33;100.00
4735;BME280;2381;50.676;12.612;2022-12-13T06:46:10;96929.75;;;-10.38;100.00
4735;BME280;2381;50.676;12.612;2022-12-13T06:49:14;96937.88;;;-10.30;100.00
4735;BME280;2381;50.676;12.612;2022-12-13T06:52:16;96937.44;;;-10.39;100.00
4735;BME280;2381;50.676;12.612;2022-12-13T06:55:21;96938.97;;;-10.35;100.00
4735;BME280;2381;50.676;12.612;2022-12-13T06:58:24;96938.53;;;-10.45;100.00
4735;BME280;2381;50.676;12.612;2022-12-13T07:01:28;96942.44;;;-10.36;100.00
4735;BME280;2381;50.676;12.612;2022-12-13T07:04:38;96947.63;;;-10.39;100.00
4735;BME280;2381;50.676;12.612;2022-12-13T07:07:41;96953.41;;;-10.36;100.00
4735;BME280;2381;50.676;12.612;2022-12-13T07:10:45;96955.34;;;-10.41;100.00
4735;BME280;2381;50.676;12.612;2022-12-13T07:13:50;96962.06;;;-10.40;100.00
4735;BME280;2381;50.676;12.612;2022-12-13T07:16:53;96956.19;;;-10.22;100.00
4735;BME280;2381;50.676;12.612;2022-12-13T07:20:05;96964.34;;;-10.34;100.00
4735;BME280;2381;50.676;12.612;2022-12-13T07:23:10;96962.53;;;-10.70;100.00
4735;BME280;2381;50.676;12.612;2022-12-13T07:26:14;96965.13;;;-10.32;100.00
4735;BME280;2381;50.676;12.612;2022-12-13T07:29:17;96966.16;;;-10.56;100.00
4735;BME280;2381;50.676;12.612;2022-12-13T07:32:23;96966.19;;;-10.37;100.00
4735;BME280;2381;50.676;12.612;2022-12-13T07:35:26;96976.63;;;-10.43;100.00
4735;BME280;2381;50.676;12.612;2022-12-13T07:38:29;96966.06;;;-10.34;100.00
4735;BME280;2381;50.676;12.612;2022-12-13T07:41:33;96971.00;;;-10.50;100.00
4735;BME280;2381;50.676;12.612;2022-12-13T07:44:36;96968.94;;;-10.42;100.00
4735;BME280;2381;50.676;12.612;2022-12-13T07:47:39;96969.22;;;-10.29;100.00
4735;BME280;2381;50.676;12.612;2022-12-13T07:50:42;96965.13;;;-10.32;100.00
4735;BME280;2381;50.676;12.612;2022-12-13T07:53:55;96968.28;;;-10.27;100.00
4735;BME280;2381;50.676;12.612;2022-12-13T07:57:00;96968.97;;;-10.23;100.00
4735;BME280;2381;50.676;12.612;2022-12-13T08:00:06;96971.03;;;-10.13;100.00
4735;BME280;2381;50.676;12.612;2022-12-13T08:03:13;96969.13;;;-10.08;100.00
4735;BME280;2381;50.676;12.612;2022-12-13T08:06:26;96968.03;;;-10.02;100.00
4735;BME280;2381;50.676;12.612;2022-12-13T08:09:29;96964.84;;;-10.07;100.00
4735;BME280;2381;50.676;12.612;2022-12-13T08:12:33;96966.19;;;-10.00;100.00
4735;BME280;2381;50.676;12.612;2022-12-13T08:15:36;96967.59;;;-9.93;100.00
4735;BME280;2381;50.676;12.612;2022-12-13T08:18:39;96964.34;;;-9.97;100.00
4735;BME280;2381;50.676;12.612;2022-12-13T08:21:42;96963.03;;;-9.87;100.00
4735;BME280;2381;50.676;12.612;2022-12-13T08:24:56;96961.59;;;-9.92;100.00
4735;BME280;2381;50.676;12.612;2022-12-13T08:28:00;96966.88;;;-9.79;100.00
4735;BME280;2381;50.676;12.612;2022-12-13T08:31:05;96969.50;;;-9.80;100.00
4735;BME280;2381;50.676;12.612;2022-12-13T08:34:08;96973.22;;;-9.87;100.00
4735;BME280;2381;50.676;12.612;2022-12-13T08:37:11;96973.19;;;-9.69;100.00
4735;BME280;2381;50.676;12.612;2022-12-13T08:40:15;96975.28;;;-9.58;100.00
4735;BME280;2381;50.676;12.612;2022-12-13T08:43:19;96982.44;;;-9.66;100.00
4735;BME280;2381;50.676;12.612;2022-12-13T08:46:25;96972.09;;;-9.63;100.00
4735;BME280;2381;50.676;12.612;2022-12-13T08:49:28;96975.19;;;-9.57;100.00
4735;BME280;2381;50.676;12.612;2022-12-13T08:52:31;96976.50;;;-9.48;100.00
4735;BME280;2381;50.676;12.612;2022-12-13T08:55:41;96976.19;;;-9.42;100.00
4735;BME280;2381;50.676;12.612;2022-12-13T08:58:48;96980.34;;;-9.40;100.00
4735;BME280;2381;50.676;12.612;2022-12-13T09:01:52;96979.22;;;-9.34;100.00
4735;BME280;2381;50.676;12.612;2022-12-13T09:05:00;96978.94;;;-9.11;100.00
4735;BME280;2381;50.676;12.612;2022-12-13T09:08:04;96975.69;;;-8.96;100.00
4735;BME280;2381;50.676;12.612;2022-12-13T09:11:25;96974.91;;;-8.81;100.00
4735;BME280;2381;50.676;12.612;2022-12-13T09:14:38;96988.66;;;-8.84;100.00
4735;BME280;2381;50.676;12.612;2022-12-13T09:17:47;96974.56;;;-8.74;100.00
4735;BME280;2381;50.676;12.612;2022-12-13T09:20:53;96984.50;;;-8.69;100.00
4735;BME280;2381;50.676;12.612;2022-12-13T09:24:11;96980.63;;;-8.76;100.00
4735;BME280;2381;50.676;12.612;2022-12-13T09:27:26;96975.81;;;-8.65;100.00
4735;BME280;2381;50.676;12.612;2022-12-13T09:30:30;96975.22;;;-8.53;100.00
4735;BME280;2381;50.676;12.612;2022-12-13T09:33:33;96981.03;;;-8.34;100.00
4735;BME280;2381;50.676;12.612;2022-12-13T09:36:42;96987.91;;;-8.19;100.00
4735;BME280;2381;50.676;12.612;2022-12-13T09:39:45;96979.00;;;-8.12;100.00
4735;BME280;2381;50.676;12.612;2022-12-13T09:42:56;96977.78;;;-8.21;100.00
4735;BME280;2381;50.676;12.612;2022-12-13T09:46:22;96969.69;;;-8.13;100.00
4735;BME280;2381;50.676;12.612;2022-12-13T09:49:38;96973.19;;;-7.99;100.00
4735;BME280;2381;50.676;12.612;2022-12-13T09:52:43;96965.72;;;-7.86;100.00
4735;BME280;2381;50.676;12.612;2022-12-13T09:55:48;96962.50;;;-7.74;100.00
4735;BME280;2381;50.676;12.612;2022-12-13T09:58:53;96955.75;;;-7.60;100.00
4735;BME280;2381;50.676;12.612;2022-12-13T10:02:06;96955.09;;;-7.48;100.00
4735;BME280;2381;50.676;12.612;2022-12-13T10:05:24;96951.94;;;-7.38;100.00
4735;BME280;2381;50.676;12.612;2022-12-13T10:08:41;96959.78;;;-7.41;100.00
4735;BME280;2381;50.676;12.612;2022-12-13T10:11:49;96950.13;;;-7.20;100.00
4735;BME280;2381;50.676;12.612;2022-12-13T10:14:57;96945.50;;;-7.00;100.00
4735;BME280;2381;50.676;12.612;2022-12-13T10:18:11;96941.91;;;-6.82;100.00
4735;BME280;2381;50.676;12.612;2022-12-13T10:21:27;96936.84;;;-6.97;100.00
4735;BME280;2381;50.676;12.612;2022-12-13T10:24:47;96938.44;;;-6.81;100.00
4735;BME280;2381;50.676;12.612;2022-12-13T10:27:51;96938.19;;;-6.62;100.00
4735;BME280;2381;50.676;12.612;2022-12-13T10:30:55;96937.78;;;-6.27;100.00
4735;BME280;2381;50.676;12.612;2022-12-13T10:34:00;96932.91;;;-6.59;100.00
4735;BME280;2381;50.676;12.612;2022-12-13T10:37:23;96939.19;;;-6.65;100.00
4735;BME280;2381;50.676;12.612;2022-12-13T10:40:33;96933.53;;;-6.56;100.00
4735;BME280;2381;50.676;12.612;2022-12-13T10:43:36;96928.81;;;-6.48;100.00
4735;BME280;2381;50.676;12.612;2022-12-13T10:46:41;96932.84;;;-6.44;100.00
4735;BME280;2381;50.676;12.612;2022-12-13T10:49:53;96930.84;;;-6.11;100.00
4735;BME280;2381;50.676;12.612;2022-12-13T10:53:00;96935.69;;;-6.20;100.00
4735;BME280;2381;50.676;12.612;2022-12-13T10:56:03;96933.75;;;-6.17;100.00
4735;BME280;2381;50.676;12.612;2022-12-13T10:59:24;96935.78;;;-6.36;100.00
4735;BME280;2381;50.676;12.612;2022-12-13T11:02:33;96927.91;;;-6.47;100.00
4735;BME280;2381;50.676;12.612;2022-12-13T11:05:38;96921.59;;;-6.41;100.00
4735;BME280;2381;50.676;12.612;2022-12-13T11:08:41;96923.88;;;-6.37;100.00
4735;BME280;2381;50.676;12.612;2022-12-13T11:11:44;96922.63;;;-6.30;100.00
4735;BME280;2381;50.676;12.612;2022-12-13T11:14:51;96914.00;;;-6.29;100.00
4735;BME280;2381;50.676;12.612;2022-12-13T11:17:58;96912.00;;;-6.10;100.00
4735;BME280;2381;50.676;12.612;2022-12-13T11:21:04;96909.25;;;-6.07;100.00
4735;BME280;2381;50.676;12.612;2022-12-13T11:24:17;96899.88;;;-5.94;100.00
4735;BME280;2381;50.676;12.612;2022-12-13T11:27:37;96896.75;;;-5.85;100.00
4735;BME280;2381;50.676;12.612;2022-12-13T11:30:47;96888.28;;;-5.73;100.00
4735;BME280;2381;50.676;12.612;2022-12-13T11:34:07;96894.53;;;-5.77;100.00
4735;BME280;2381;50.676;12.612;2022-12-13T11:37:21;96887.56;;;-5.75;100.00
4735;BME280;2381;50.676;12.612;2022-12-13T11:40:29;96890.75;;;-5.71;100.00
4735;BME280;2381;50.676;12.612;2022-12-13T11:43:38;96888.84;;;-5.68;100.00
4735;BME280;2381;50.676;12.612;2022-12-13T11:46:45;96885.78;;;-5.60;100.00
4735;BME280;2381;50.676;12.612;2022-12-13T11:49:51;96885.66;;;-5.45;100.00
4735;BME280;2381;50.676;12.612;2022-12-13T11:52:58;96888.34;;;-5.34;100.00
4735;BME280;2381;50.676;12.612;2022-12-13T11:56:06;96881.91;;;-5.27;100.00
4735;BME280;2381;50.676;12.612;2022-12-13T11:59:21;96886.16;;;-5.13;100.00
4735;BME280;2381;50.676;12.612;2022-12-13T12:02:32;96888.03;;;-5.03;100.00
4735;BME280;2381;50.676;12.612;2022-12-13T12:05:37;96889.31;;;-4.71;100.00
4735;BME280;2381;50.676;12.612;2022-12-13T12:08:57;96887.16;;;-4.52;100.00
4735;BME280;2381;50.676;12.612;2022-12-13T12:12:05;96881.00;;;-4.37;100.00
4735;BME280;2381;50.676;12.612;2022-12-13T12:15:13;96892.00;;;-4.23;100.00
4735;BME280;2381;50.676;12.612;2022-12-13T12:18:17;96886.44;;;-4.04;100.00
4735;BME280;2381;50.676;12.612;2022-12-13T12:21:28;96886.56;;;-4.31;100.00
4735;BME280;2381;50.676;12.612;2022-12-13T12:25:09;96893.25;;;-4.28;100.00
4735;BME280;2381;50.676;12.612;2022-12-13T12:28:26;96882.22;;;-4.05;100.00
4735;BME280;2381;50.676;12.612;2022-12-13T12:31:36;96883.72;;;-3.90;100.00
4735;BME280;2381;50.676;12.612;2022-12-13T12:34:58;96878.41;;;-3.40;100.00
4735;BME280;2381;50.676;12.612;2022-12-13T12:38:18;96882.91;;;-3.31;100.00
4735;BME280;2381;50.676;12.612;2022-12-13T12:41:29;96878.19;;;-2.79;100.00
4735;BME280;2381;50.676;12.612;2022-12-13T12:44:40;96881.59;;;-2.79;100.00
4735;BME280;2381;50.676;12.612;2022-12-13T12:47:51;96886.09;;;-3.04;100.00
4735;BME280;2381;50.676;12.612;2022-12-13T12:51:19;96881.94;;;-2.16;100.00
4735;BME280;2381;50.676;12.612;2022-12-13T12:54:35;96872.22;;;-2.13;100.00
4735;BME280;2381;50.676;12.612;2022-12-13T12:57:52;96867.66;;;-1.87;100.00
4735;BME280;2381;50.676;12.612;2022-12-13T13:01:12;96870.66;;;-1.60;100.00
4735;BME280;2381;50.676;12.612;2022-12-13T13:04:21;96865.38;;;-1.16;100.00
4735;BME280;2381;50.676;12.612;2022-12-13T13:07:30;96869.81;;;-1.50;100.00
4735;BME280;2381;50.676;12.612;2022-12-13T13:10:41;96879.47;;;-1.96;100.00
4735;BME280;2381;50.676;12.612;2022-12-13T13:14:02;96872.66;;;-2.41;100.00
4735;BME280;2381;50.676;12.612;2022-12-13T13:24:27;96891.38;;;-2.50;100.00
4735;BME280;2381;50.676;12.612;2022-12-13T13:27:32;96892.56;;;-2.53;100.00
4735;BME280;2381;50.676;12.612;2022-12-13T13:31:04;96891.50;;;-2.51;100.00
4735;BME280;2381;50.676;12.612;2022-12-13T13:34:21;96891.47;;;-2.62;100.00
4735;BME280;2381;50.676;12.612;2022-12-13T13:37:26;96894.25;;;-2.31;100.00
4735;BME280;2381;50.676;12.612;2022-12-13T13:40:31;96893.41;;;-2.31;100.00
4735;BME280;2381;50.676;12.612;2022-12-13T13:43:35;96896.81;;;-2.42;100.00
4735;BME280;2381;50.676;12.612;2022-12-13T13:50:36;96890.53;;;-2.61;100.00
4735;BME280;2381;50.676;12.612;2022-12-13T13:58:00;96898.03;;;-3.03;100.00
4735;BME280;2381;50.676;12.612;2022-12-13T14:01:36;96886.88;;;-2.80;100.00
4735;BME280;2381;50.676;12.612;2022-12-13T14:08:40;96890.25;;;-3.14;100.00
4735;BME280;2381;50.676;12.612;2022-12-13T14:12:11;96895.47;;;-3.27;100.00
4735;BME280;2381;50.676;12.612;2022-12-13T14:15:55;96887.78;;;-3.16;100.00
4735;BME280;2381;50.676;12.612;2022-12-13T14:22:44;96878.19;;;-3.97;100.00
4735;BME280;2381;50.676;12.612;2022-12-13T14:26:15;96886.44;;;-4.04;100.00
4735;BME280;2381;50.676;12.612;2022-12-13T14:29:24;96891.78;;;-4.32;100.00
4735;BME280;2381;50.676;12.612;2022-12-13T14:32:30;96896.09;;;-4.83;100.00
4735;BME280;2381;50.676;12.612;2022-12-13T14:35:49;96894.44;;;-4.71;100.00
4735;BME280;2381;50.676;12.612;2022-12-13T14:38:58;96895.28;;;-4.46;100.00
4735;BME280;2381;50.676;12.612;2022-12-13T14:42:20;96890.34;;;-4.61;100.00
4735;BME280;2381;50.676;12.612;2022-12-13T14:45:26;96901.88;;;-4.54;100.00
4735;BME280;2381;50.676;12.612;2022-12-13T14:48:34;96902.81;;;-4.94;100.00
4735;BME280;2381;50.676;12.612;2022-12-13T14:51:38;96903.53;;;-4.92;100.00
4735;BME280;2381;50.676;12.612;2022-12-13T14:54:45;96896.25;;;-4.86;100.00
4735;BME280;2381;50.676;12.612;2022-12-13T14:57:52;96903.16;;;-5.25;100.00
4735;BME280;2381;50.676;12.612;2022-12-13T15:00:55;96896.53;;;-5.68;100.00
4735;BME280;2381;50.676;12.612;2022-12-13T15:04:17;96904.66;;;-5.88;100.00
4735;BME280;2381;50.676;12.612;2022-12-13T15:07:24;96897.50;;;-5.56;100.00
4735;BME280;2381;50.676;12.612;2022-12-13T15:10:36;96910.22;;;-5.55;100.00
4735;BME280;2381;50.676;12.612;2022-12-13T15:13:43;96915.72;;;-6.01;100.00
4735;BME280;2381;50.676;12.612;2022-12-13T15:16:49;96921.34;;;-6.23;100.00
4735;BME280;2381;50.676;12.612;2022-12-13T15:19:54;96914.94;;;-6.30;100.00
4735;BME280;2381;50.676;12.612;2022-12-13T15:22:59;96907.78;;;-6.25;100.00
4735;BME280;2381;50.676;12.612;2022-12-13T15:26:13;96913.25;;;-6.45;100.00
4735;BME280;2381;50.676;12.612;2022-12-13T15:29:32;96902.47;;;-6.50;100.00
4735;BME280;2381;50.676;12.612;2022-12-13T15:33:03;96903.78;;;-6.43;100.00
4735;BME280;2381;50.676;12.612;2022-12-13T15:36:08;96907.94;;;-6.56;100.00
4735;BME280;2381;50.676;12.612;2022-12-13T15:39:12;96911.34;;;-6.55;100.00
4735;BME280;2381;50.676;12.612;2022-12-13T15:42:21;96901.63;;;-6.78;100.00
4735;BME280;2381;50.676;12.612;2022-12-13T15:45:26;96903.84;;;-7.02;100.00
4735;BME280;2381;50.676;12.612;2022-12-13T15:48:39;96901.47;;;-7.34;100.00
4735;BME280;2381;50.676;12.612;2022-12-13T15:51:53;96898.50;;;-7.42;100.00
4735;BME280;2381;50.676;12.612;2022-12-13T15:54:58;96897.34;;;-7.37;100.00
4735;BME280;2381;50.676;12.612;2022-12-13T15:58:02;96893.34;;;-7.27;100.00
4735;BME280;2381;50.676;12.612;2022-12-13T16:01:27;96879.59;;;-7.69;100.00
4735;BME280;2381;50.676;12.612;2022-12-13T16:04:31;96883.63;;;-7.96;100.00
4735;BME280;2381;50.676;12.612;2022-12-13T16:07:35;96889.97;;;-7.87;100.00
4735;BME280;2381;50.676;12.612;2022-12-13T16:10:45;96882.41;;;-7.89;100.00
4735;BME280;2381;50.676;12.612;2022-12-13T16:37:50;96854.81;;;-8.13;100.00
4735;BME280;2381;50.676;12.612;2022-12-13T16:41:12;96853.72;;;-8.09;100.00
4735;BME280;2381;50.676;12.612;2022-12-13T16:44:31;96856.69;;;-8.01;100.00
4735;BME280;2381;50.676;12.612;2022-12-13T16:47:42;96855.72;;;-8.14;100.00
4735;BME280;2381;50.676;12.612;2022-12-13T16:50:55;96862.41;;;-7.96;100.00
4735;BME280;2381;50.676;12.612;2022-12-13T16:54:05;96856.22;;;-8.23;100.00
4735;BME280;2381;50.676;12.612;2022-12-13T16:57:08;96857.88;;;-8.38;100.00
4735;BME280;2381;50.676;12.612;2022-12-13T17:00:13;96861.31;;;-8.54;100.00
4735;BME280;2381;50.676;12.612;2022-12-13T17:03:21;96857.19;;;-8.41;100.00
4735;BME280;2381;50.676;12.612;2022-12-13T17:06:29;96855.84;;;-8.48;100.00
4735;BME280;2381;50.676;12.612;2022-12-13T17:09:34;96848.31;;;-8.34;100.00
4735;BME280;2381;50.676;12.612;2022-12-13T17:12:39;96838.94;;;-8.18;100.00
4735;BME280;2381;50.676;12.612;2022-12-13T17:15:46;96842.72;;;-8.25;100.00
4735;BME280;2381;50.676;12.612;2022-12-13T17:19:03;96842.38;;;-8.50;100.00
4735;BME280;2381;50.676;12.612;2022-12-13T17:22:29;96846.00;;;-8.54;100.00